Terminal Aerodrome Forecast
Issued by NWS

Home | Current Version | Previous Version | Text Only | Print | Product List | Glossary On
Versions: 1 2 3 4 5 6 7 8 9 10 11 12 13 14 15 16 17 18 19 20
000
FTUS44 KBMX 211200 RRA
TAFTOI
TAF
KTOI 211229Z 2112/2212 00000KT 5SM BR SCT002
     FM211230 12003KT P6SM SKC
     FM211700 18004KT P6SM SCT250
     FM220500 21003KT P6SM BKN080=

USA.gov is the U.S. government's official web portal to all federal, state and local government web resources and services.